sensor_id;sensor_type;location;lat;lon;timestamp;pressure;altitude;pressure_sealevel;temperature;humidity
56831;BME280;42713;42.676;23.352;2022-11-11T00:01:36;95912.88;;;8.77;73.46
56831;BME280;42713;42.676;23.352;2022-11-11T00:04:01;95914.50;;;8.78;73.18
56831;BME280;42713;42.676;23.352;2022-11-11T00:06:27;95908.88;;;8.75;73.68
56831;BME280;42713;42.676;23.352;2022-11-11T00:08:53;95913.69;;;8.78;73.46
56831;BME280;42713;42.676;23.352;2022-11-11T00:11:18;95912.09;;;8.77;73.14
56831;BME280;42713;42.676;23.352;2022-11-11T00:13:50;95905.88;;;8.71;73.62
56831;BME280;42713;42.676;23.352;2022-11-11T00:16:19;95909.88;;;8.74;73.68
56831;BME280;42713;42.676;23.352;2022-11-11T00:18:45;95911.50;;;8.75;73.37
56831;BME280;42713;42.676;23.352;2022-11-11T00:21:30;95907.44;;;8.72;73.10
56831;BME280;42713;42.676;23.352;2022-11-11T00:24:01;95906.66;;;8.71;73.13
56831;BME280;42713;42.676;23.352;2022-11-11T00:26:46;95907.44;;;8.72;73.37
56831;BME280;42713;42.676;23.352;2022-11-11T00:29:11;95908.47;;;8.78;73.60
56831;BME280;42713;42.676;23.352;2022-11-11T00:31:38;95909.47;;;8.90;73.85
56831;BME280;42713;42.676;23.352;2022-11-11T00:34:24;95918.09;;;9.04;75.31
56831;BME280;42713;42.676;23.352;2022-11-11T00:36:49;95919.31;;;9.08;75.74
56831;BME280;42713;42.676;23.352;2022-11-11T00:39:15;95916.28;;;9.11;76.43
56831;BME280;42713;42.676;23.352;2022-11-11T00:41:41;95906.81;;;9.17;76.57
56831;BME280;42713;42.676;23.352;2022-11-11T00:44:06;95913.03;;;9.23;76.36
56831;BME280;42713;42.676;23.352;2022-11-11T00:46:32;95917.09;;;9.25;76.46
56831;BME280;42713;42.676;23.352;2022-11-11T00:49:16;95908.81;;;9.28;76.80
56831;BME280;42713;42.676;23.352;2022-11-11T00:52:00;95916.25;;;9.31;76.95
56831;BME280;42713;42.676;23.352;2022-11-11T00:54:26;95910.03;;;9.32;76.64
56831;BME280;42713;42.676;23.352;2022-11-11T00:56:51;95904.97;;;9.31;77.24
56831;BME280;42713;42.676;23.352;2022-11-11T00:59:17;95903.38;;;9.37;76.68
56831;BME280;42713;42.676;23.352;2022-11-11T01:01:42;95896.13;;;9.39;76.63
56831;BME280;42713;42.676;23.352;2022-11-11T01:04:08;95905.19;;;9.43;76.76
56831;BME280;42713;42.676;23.352;2022-11-11T01:06:33;95905.78;;;9.38;76.50
56831;BME280;42713;42.676;23.352;2022-11-11T01:09:04;95908.19;;;9.40;76.77
56831;BME280;42713;42.676;23.352;2022-11-11T01:11:30;95897.72;;;9.40;76.80
56831;BME280;42713;42.676;23.352;2022-11-11T01:13:56;95900.13;;;9.41;76.72
56831;BME280;42713;42.676;23.352;2022-11-11T01:16:23;95899.94;;;9.43;76.69
56831;BME280;42713;42.676;23.352;2022-11-11T01:18:50;95898.34;;;9.42;76.37
56831;BME280;42713;42.676;23.352;2022-11-11T01:21:19;95905.34;;;9.48;76.59
56831;BME280;42713;42.676;23.352;2022-11-11T01:23:46;95898.50;;;9.47;76.76
56831;BME280;42713;42.676;23.352;2022-11-11T01:28:41;95906.78;;;9.44;77.01
56831;BME280;42713;42.676;23.352;2022-11-11T01:31:10;95895.34;;;9.38;77.23
56831;BME280;42713;42.676;23.352;2022-11-11T01:33:36;95905.56;;;9.40;77.10
56831;BME280;42713;42.676;23.352;2022-11-11T01:36:11;95903.75;;;9.47;77.40
56831;BME280;42713;42.676;23.352;2022-11-11T01:38:37;95891.66;;;9.46;77.50
56831;BME280;42713;42.676;23.352;2022-11-11T01:41:05;95892.50;;;9.46;77.13
56831;BME280;42713;42.676;23.352;2022-11-11T01:46:56;95887.28;;;9.40;77.71
56831;BME280;42713;42.676;23.352;2022-11-11T01:57:07;95903.38;;;9.37;78.34
56831;BME280;42713;42.676;23.352;2022-11-11T01:59:36;95903.78;;;9.33;78.34
56831;BME280;42713;42.676;23.352;2022-11-11T02:02:08;95911.81;;;9.39;78.27
56831;BME280;42713;42.676;23.352;2022-11-11T02:04:36;95905.56;;;9.40;78.60
56831;BME280;42713;42.676;23.352;2022-11-11T02:07:21;95904.19;;;9.30;78.65
56831;BME280;42713;42.676;23.352;2022-11-11T02:09:49;95919.50;;;9.27;79.00
56831;BME280;42713;42.676;23.352;2022-11-11T02:12:16;95918.66;;;9.33;78.94
56831;BME280;42713;42.676;23.352;2022-11-11T02:15:01;95912.63;;;9.32;79.33
56831;BME280;42713;42.676;23.352;2022-11-11T02:17:29;95916.03;;;9.33;78.99
56831;BME280;42713;42.676;23.352;2022-11-11T02:20:00;95917.09;;;9.25;79.77
56831;BME280;42713;42.676;23.352;2022-11-11T02:22:51;95928.13;;;9.27;79.86
56831;BME280;42713;42.676;23.352;2022-11-11T02:25:22;95918.66;;;9.26;80.22
56831;BME280;42713;42.676;23.352;2022-11-11T02:27:51;95917.69;;;9.21;80.58
56831;BME280;42713;42.676;23.352;2022-11-11T02:30:19;95918.28;;;9.23;81.06
56831;BME280;42713;42.676;23.352;2022-11-11T02:32:48;95912.03;;;9.24;80.31
56831;BME280;42713;42.676;23.352;2022-11-11T02:35:45;95921.88;;;9.28;80.61
56831;BME280;42713;42.676;23.352;2022-11-11T02:38:19;95912.25;;;9.29;80.33
56831;BME280;42713;42.676;23.352;2022-11-11T02:40:44;95923.50;;;9.36;80.22
56831;BME280;42713;42.676;23.352;2022-11-11T02:43:33;95916.44;;;9.37;79.97
56831;BME280;42713;42.676;23.352;2022-11-11T02:46:00;95911.41;;;9.42;79.71
56831;BME280;42713;42.676;23.352;2022-11-11T02:48:27;95921.06;;;9.41;79.68
56831;BME280;42713;42.676;23.352;2022-11-11T02:50:53;95914.63;;;9.44;79.53
56831;BME280;42713;42.676;23.352;2022-11-11T02:53:19;95913.63;;;9.45;79.50
56831;BME280;42713;42.676;23.352;2022-11-11T02:55:45;95916.84;;;9.40;78.01
56831;BME280;42713;42.676;23.352;2022-11-11T02:58:11;95915.44;;;9.31;79.11
56831;BME280;42713;42.676;23.352;2022-11-11T03:00:37;95917.69;;;9.07;79.00
56831;BME280;42713;42.676;23.352;2022-11-11T03:03:03;95920.72;;;8.97;77.75
56831;BME280;42713;42.676;23.352;2022-11-11T03:05:28;95926.13;;;8.82;77.00
56831;BME280;42713;42.676;23.352;2022-11-11T03:07:54;95917.91;;;8.79;76.22
56831;BME280;42713;42.676;23.352;2022-11-11T03:10:20;95921.72;;;8.76;75.32
56831;BME280;42713;42.676;23.352;2022-11-11T03:12:45;95925.34;;;8.68;75.95
56831;BME280;42713;42.676;23.352;2022-11-11T03:15:11;95931.97;;;8.64;74.97
56831;BME280;42713;42.676;23.352;2022-11-11T03:17:36;95921.53;;;8.57;75.73
56831;BME280;42713;42.676;23.352;2022-11-11T03:20:08;95920.28;;;8.53;75.65
56831;BME280;42713;42.676;23.352;2022-11-11T03:23:03;95924.69;;;8.46;75.68
56831;BME280;42713;42.676;23.352;2022-11-11T03:25:29;95917.50;;;8.48;74.68
56831;BME280;42713;42.676;23.352;2022-11-11T03:28:13;95927.34;;;8.53;74.54
56831;BME280;42713;42.676;23.352;2022-11-11T03:30:44;95920.25;;;8.40;75.33
56831;BME280;42713;42.676;23.352;2022-11-11T03:33:10;95917.25;;;8.43;76.25
56831;BME280;42713;42.676;23.352;2022-11-11T03:35:36;95912.63;;;8.45;76.63
56831;BME280;42713;42.676;23.352;2022-11-11T03:38:03;95918.66;;;8.46;76.60
56831;BME280;42713;42.676;23.352;2022-11-11T03:40:53;95915.69;;;8.55;77.93
56831;BME280;42713;42.676;23.352;2022-11-11T03:43:23;95916.69;;;8.61;79.24
56831;BME280;42713;42.676;23.352;2022-11-11T03:45:49;95922.31;;;8.65;78.14
56831;BME280;42713;42.676;23.352;2022-11-11T03:48:15;95921.31;;;8.66;77.52
56831;BME280;42713;42.676;23.352;2022-11-11T03:50:41;95921.91;;;8.61;75.39
56831;BME280;42713;42.676;23.352;2022-11-11T03:53:07;95908.47;;;8.57;75.98
56831;BME280;42713;42.676;23.352;2022-11-11T03:55:33;95920.91;;;8.62;75.69
56831;BME280;42713;42.676;23.352;2022-11-11T03:57:58;95926.75;;;8.64;76.93
56831;BME280;42713;42.676;23.352;2022-11-11T04:00:26;95928.75;;;8.69;76.77
56831;BME280;42713;42.676;23.352;2022-11-11T04:03:00;95926.75;;;8.78;79.07
56831;BME280;42713;42.676;23.352;2022-11-11T04:05:45;95913.91;;;8.83;80.84
56831;BME280;42713;42.676;23.352;2022-11-11T04:08:31;95922.13;;;8.93;82.05
56831;BME280;42713;42.676;23.352;2022-11-11T04:11:21;95919.09;;;9.03;83.19
56831;BME280;42713;42.676;23.352;2022-11-11T04:13:47;95916.69;;;9.08;83.39
56831;BME280;42713;42.676;23.352;2022-11-11T04:16:31;95909.88;;;9.07;83.83
56831;BME280;42713;42.676;23.352;2022-11-11T04:18:57;95927.34;;;9.13;84.10
56831;BME280;42713;42.676;23.352;2022-11-11T04:21:41;95920.72;;;9.17;84.88
56831;BME280;42713;42.676;23.352;2022-11-11T04:24:14;95929.13;;;9.26;85.48
56831;BME280;42713;42.676;23.352;2022-11-11T04:27:04;95922.66;;;9.35;85.04
56831;BME280;42713;42.676;23.352;2022-11-11T04:29:30;95924.50;;;9.42;85.28
56831;BME280;42713;42.676;23.352;2022-11-11T04:32:04;95928.50;;;9.44;85.35
56831;BME280;42713;42.676;23.352;2022-11-11T04:34:54;95929.72;;;9.48;85.33
56831;BME280;42713;42.676;23.352;2022-11-11T04:37:21;95936.94;;;9.53;85.07
56831;BME280;42713;42.676;23.352;2022-11-11T04:39:46;95938.13;;;9.57;84.86
56831;BME280;42713;42.676;23.352;2022-11-11T04:42:31;95925.84;;;9.58;85.14
56831;BME280;42713;42.676;23.352;2022-11-11T04:44:58;95934.31;;;9.60;85.55
56831;BME280;42713;42.676;23.352;2022-11-11T04:48:01;95940.94;;;9.62;85.45
56831;BME280;42713;42.676;23.352;2022-11-11T04:50:40;95944.16;;;9.64;85.74
56831;BME280;42713;42.676;23.352;2022-11-11T04:53:11;95939.31;;;9.61;85.97
56831;BME280;42713;42.676;23.352;2022-11-11T04:55:37;95940.72;;;9.64;86.34
56831;BME280;42713;42.676;23.352;2022-11-11T04:58:24;95952.00;;;9.64;86.08
56831;BME280;42713;42.676;23.352;2022-11-11T05:00:50;95939.50;;;9.66;85.90
56831;BME280;42713;42.676;23.352;2022-11-11T05:03:16;95940.31;;;9.67;85.71
56831;BME280;42713;42.676;23.352;2022-11-11T05:05:53;95930.88;;;9.66;86.16
56831;BME280;42713;42.676;23.352;2022-11-11T05:08:42;95929.44;;;9.70;85.84
56831;BME280;42713;42.676;23.352;2022-11-11T05:11:22;95935.66;;;9.76;85.17
56831;BME280;42713;42.676;23.352;2022-11-11T05:13:49;95942.31;;;9.78;85.19
56831;BME280;42713;42.676;23.352;2022-11-11T05:16:39;95936.06;;;9.79;84.89
56831;BME280;42713;42.676;23.352;2022-11-11T05:19:24;95941.84;;;9.88;84.37
56831;BME280;42713;42.676;23.352;2022-11-11T05:24:38;95944.47;;;9.88;83.83
56831;BME280;42713;42.676;23.352;2022-11-11T05:27:22;95951.31;;;9.89;84.48
56831;BME280;42713;42.676;23.352;2022-11-11T05:29:48;95942.66;;;9.89;83.33
56831;BME280;42713;42.676;23.352;2022-11-11T05:32:18;95954.53;;;9.91;84.01
56831;BME280;42713;42.676;23.352;2022-11-11T05:34:45;95953.94;;;9.89;84.21
56831;BME280;42713;42.676;23.352;2022-11-11T05:37:11;95955.53;;;9.90;83.66
56831;BME280;42713;42.676;23.352;2022-11-11T05:39:36;95966.00;;;9.97;83.73
56831;BME280;42713;42.676;23.352;2022-11-11T05:42:03;95962.38;;;9.91;83.37
56831;BME280;42713;42.676;23.352;2022-11-11T05:44:28;95969.63;;;9.89;83.33
56831;BME280;42713;42.676;23.352;2022-11-11T05:46:54;95974.50;;;9.79;83.02
56831;BME280;42713;42.676;23.352;2022-11-11T05:49:20;95980.56;;;9.73;83.21
56831;BME280;42713;42.676;23.352;2022-11-11T05:51:47;95977.56;;;9.69;83.61
56831;BME280;42713;42.676;23.352;2022-11-11T05:54:13;95975.31;;;9.73;83.93
56831;BME280;42713;42.676;23.352;2022-11-11T05:56:39;95983.56;;;9.70;83.99
56831;BME280;42713;42.676;23.352;2022-11-11T05:59:06;95994.25;;;9.68;83.30
56831;BME280;42713;42.676;23.352;2022-11-11T06:01:32;95996.88;;;9.61;83.67
56831;BME280;42713;42.676;23.352;2022-11-11T06:03:58;95992.25;;;9.63;84.26
56831;BME280;42713;42.676;23.352;2022-11-11T06:06:23;95997.06;;;9.66;84.28
56831;BME280;42713;42.676;23.352;2022-11-11T06:08:49;96010.34;;;9.72;83.78
56831;BME280;42713;42.676;23.352;2022-11-11T06:11:14;96006.09;;;9.77;83.30
56831;BME280;42713;42.676;23.352;2022-11-11T06:13:40;96007.28;;;9.81;82.92
56831;BME280;42713;42.676;23.352;2022-11-11T06:16:06;96012.72;;;9.80;83.21
56831;BME280;42713;42.676;23.352;2022-11-11T06:18:32;96009.91;;;9.81;82.84
56831;BME280;42713;42.676;23.352;2022-11-11T06:20:58;96017.97;;;9.80;82.97
56831;BME280;42713;42.676;23.352;2022-11-11T06:23:25;96021.19;;;9.82;83.88
56831;BME280;42713;42.676;23.352;2022-11-11T06:25:51;96024.19;;;9.86;83.23
56831;BME280;42713;42.676;23.352;2022-11-11T06:28:35;96039.91;;;9.86;82.75
56831;BME280;42713;42.676;23.352;2022-11-11T06:31:01;96031.03;;;9.80;83.43
56831;BME280;42713;42.676;23.352;2022-11-11T06:33:26;96036.69;;;9.84;83.02
56831;BME280;42713;42.676;23.352;2022-11-11T06:35:52;96040.50;;;9.81;82.96
56831;BME280;42713;42.676;23.352;2022-11-11T06:38:18;96043.72;;;9.83;82.99
56831;BME280;42713;42.676;23.352;2022-11-11T06:40:44;96051.75;;;9.81;82.79
56831;BME280;42713;42.676;23.352;2022-11-11T06:43:10;96045.34;;;9.77;82.54
56831;BME280;42713;42.676;23.352;2022-11-11T06:45:36;96059.63;;;9.75;83.37
56831;BME280;42713;42.676;23.352;2022-11-11T06:48:05;96053.19;;;9.71;83.52
56831;BME280;42713;42.676;23.352;2022-11-11T06:50:32;96064.66;;;9.76;82.93
56831;BME280;42713;42.676;23.352;2022-11-11T06:53:05;96053.81;;;9.79;83.60
56831;BME280;42713;42.676;23.352;2022-11-11T06:55:32;96047.56;;;9.74;83.06
56831;BME280;42713;42.676;23.352;2022-11-11T06:58:11;96051.97;;;9.80;83.62
56831;BME280;42713;42.676;23.352;2022-11-11T07:00:38;96053.59;;;9.81;83.51
56831;BME280;42713;42.676;23.352;2022-11-11T07:03:05;96066.06;;;9.86;83.39
56831;BME280;42713;42.676;23.352;2022-11-11T07:05:32;96059.84;;;9.80;84.57
56831;BME280;42713;42.676;23.352;2022-11-11T07:14:23;96046.34;;;9.70;84.16
56831;BME280;42713;42.676;23.352;2022-11-11T07:17:25;96061.44;;;9.81;83.81
56831;BME280;42713;42.676;23.352;2022-11-11T07:20:06;96034.09;;;9.63;83.80
56831;BME280;42713;42.676;23.352;2022-11-11T07:22:53;96054.03;;;9.64;83.50
56831;BME280;42713;42.676;23.352;2022-11-11T07:34:43;96074.13;;;9.77;83.51
56831;BME280;42713;42.676;23.352;2022-11-11T07:37:09;96083.59;;;9.78;83.72
56831;BME280;42713;42.676;23.352;2022-11-11T07:39:36;96080.16;;;9.78;83.27
56831;BME280;42713;42.676;23.352;2022-11-11T07:42:03;96079.75;;;9.68;83.41
56831;BME280;42713;42.676;23.352;2022-11-11T07:44:28;96083.59;;;9.72;83.61
56831;BME280;42713;42.676;23.352;2022-11-11T07:46:54;96091.63;;;9.70;83.53
56831;BME280;42713;42.676;23.352;2022-11-11T07:49:20;96099.69;;;9.75;83.44
56831;BME280;42713;42.676;23.352;2022-11-11T07:51:45;96110.53;;;9.72;83.99
56831;BME280;42713;42.676;23.352;2022-11-11T07:54:10;96093.63;;;9.75;83.30
56831;BME280;42713;42.676;23.352;2022-11-11T07:56:36;96086.78;;;9.80;82.56
56831;BME280;42713;42.676;23.352;2022-11-11T07:59:02;96095.25;;;9.76;82.76
56831;BME280;42713;42.676;23.352;2022-11-11T08:01:27;96097.47;;;9.72;83.16
56831;BME280;42713;42.676;23.352;2022-11-11T08:03:54;96099.69;;;9.75;82.69
56831;BME280;42713;42.676;23.352;2022-11-11T08:06:21;96113.97;;;9.73;82.53
56831;BME280;42713;42.676;23.352;2022-11-11T08:08:47;96096.69;;;9.72;82.22
56831;BME280;42713;42.676;23.352;2022-11-11T08:11:13;96111.75;;;9.70;82.39
56831;BME280;42713;42.676;23.352;2022-11-11T08:13:39;96110.53;;;9.72;82.38
56831;BME280;42713;42.676;23.352;2022-11-11T08:16:10;96111.16;;;9.61;82.59
56831;BME280;42713;42.676;23.352;2022-11-11T08:18:36;96107.94;;;9.65;82.15
56831;BME280;42713;42.676;23.352;2022-11-11T08:21:03;96130.69;;;9.72;81.92
56831;BME280;42713;42.676;23.352;2022-11-11T08:23:29;96114.59;;;9.68;81.85
56831;BME280;42713;42.676;23.352;2022-11-11T08:26:02;96121.63;;;9.74;82.19
56831;BME280;42713;42.676;23.352;2022-11-11T08:28:29;96115.59;;;9.74;81.77
56831;BME280;42713;42.676;23.352;2022-11-11T08:30:57;96115.38;;;9.75;81.85
56831;BME280;42713;42.676;23.352;2022-11-11T08:33:23;96119.63;;;9.83;81.56
56831;BME280;42713;42.676;23.352;2022-11-11T08:35:49;96115.38;;;9.89;81.03
56831;BME280;42713;42.676;23.352;2022-11-11T08:38:14;96105.72;;;9.89;81.30
56831;BME280;42713;42.676;23.352;2022-11-11T08:40:40;96123.81;;;10.04;80.92
56831;BME280;42713;42.676;23.352;2022-11-11T08:43:06;96115.34;;;10.02;80.15
56831;BME280;42713;42.676;23.352;2022-11-11T08:45:31;96112.94;;;10.07;79.42
56831;BME280;42713;42.676;23.352;2022-11-11T08:47:57;96111.31;;;10.13;79.67
56831;BME280;42713;42.676;23.352;2022-11-11T08:50:22;96125.97;;;10.27;79.27
56831;BME280;42713;42.676;23.352;2022-11-11T08:52:50;96096.00;;;10.10;78.87
56831;BME280;42713;42.676;23.352;2022-11-11T08:55:16;96124.56;;;10.32;78.42
56831;BME280;42713;42.676;23.352;2022-11-11T08:57:42;96110.88;;;10.36;77.79
56831;BME280;42713;42.676;23.352;2022-11-11T09:00:08;96122.34;;;10.35;78.35
56831;BME280;42713;42.676;23.352;2022-11-11T09:02:34;96133.03;;;10.40;78.43
56831;BME280;42713;42.676;23.352;2022-11-11T09:05:03;96109.22;;;10.49;77.32
56831;BME280;42713;42.676;23.352;2022-11-11T09:07:29;96104.81;;;10.49;78.03
56831;BME280;42713;42.676;23.352;2022-11-11T09:09:55;96107.16;;;10.64;76.58
56831;BME280;42713;42.676;23.352;2022-11-11T09:12:21;96112.00;;;10.67;76.71
56831;BME280;42713;42.676;23.352;2022-11-11T09:14:47;96105.09;;;10.73;76.30
56831;BME280;42713;42.676;23.352;2022-11-11T09:17:14;96116.38;;;10.80;75.89
56831;BME280;42713;42.676;23.352;2022-11-11T09:19:40;96108.13;;;10.77;74.96
56831;BME280;42713;42.676;23.352;2022-11-11T09:22:21;96109.53;;;10.79;75.77
56831;BME280;42713;42.676;23.352;2022-11-11T09:24:52;96104.28;;;10.79;75.40
56831;BME280;42713;42.676;23.352;2022-11-11T09:27:18;96099.59;;;10.88;74.20
56831;BME280;42713;42.676;23.352;2022-11-11T09:29:44;96107.03;;;10.91;73.90
56831;BME280;42713;42.676;23.352;2022-11-11T09:32:09;96111.69;;;10.89;74.51
56831;BME280;42713;42.676;23.352;2022-11-11T09:34:34;96105.88;;;10.87;73.72
56831;BME280;42713;42.676;23.352;2022-11-11T09:37:00;96100.00;;;10.92;73.04
56831;BME280;42713;42.676;23.352;2022-11-11T09:39:25;96098.53;;;10.96;72.93
56831;BME280;42713;42.676;23.352;2022-11-11T09:47:16;96100.94;;;10.97;72.25
56831;BME280;42713;42.676;23.352;2022-11-11T09:50:03;96093.31;;;10.96;72.22
56831;BME280;42713;42.676;23.352;2022-11-11T09:52:40;96085.63;;;11.01;71.66
56831;BME280;42713;42.676;23.352;2022-11-11T09:55:15;96080.94;;;11.03;71.48
56831;BME280;42713;42.676;23.352;2022-11-11T09:57:53;96082.38;;;11.05;71.13
56831;BME280;42713;42.676;23.352;2022-11-11T10:01:33;96087.22;;;11.02;71.13
56831;BME280;42713;42.676;23.352;2022-11-11T10:03:41;96069.66;;;11.02;70.99
56831;BME280;42713;42.676;23.352;2022-11-11T10:06:22;96071.16;;;10.92;69.96
56831;BME280;42713;42.676;23.352;2022-11-11T10:08:55;96084.19;;;10.98;70.77
56831;BME280;42713;42.676;23.352;2022-11-11T10:11:56;96071.06;;;11.05;70.71
56831;BME280;42713;42.676;23.352;2022-11-11T10:14:33;96087.16;;;11.09;71.26
56831;BME280;42713;42.676;23.352;2022-11-11T10:22:37;96083.63;;;11.28;69.41
56831;BME280;42713;42.676;23.352;2022-11-11T10:27:58;96081.53;;;11.37;69.21
56831;BME280;42713;42.676;23.352;2022-11-11T10:30:32;96086.38;;;11.40;68.91
56831;BME280;42713;42.676;23.352;2022-11-11T10:33:05;96079.78;;;11.31;69.31
56831;BME280;42713;42.676;23.352;2022-11-11T10:35:34;96069.72;;;11.28;69.26
56831;BME280;42713;42.676;23.352;2022-11-11T10:41:35;96066.78;;;11.43;69.00
56831;BME280;42713;42.676;23.352;2022-11-11T10:46:59;96063.91;;;11.19;68.91
56831;BME280;42713;42.676;23.352;2022-11-11T10:49:36;96068.56;;;11.17;69.21
56831;BME280;42713;42.676;23.352;2022-11-11T10:52:09;96065.75;;;11.18;68.84
56831;BME280;42713;42.676;23.352;2022-11-11T10:54:54;96064.91;;;11.18;68.87
56831;BME280;42713;42.676;23.352;2022-11-11T10:57:38;96078.63;;;11.20;68.70
56831;BME280;42713;42.676;23.352;2022-11-11T11:00:10;96055.94;;;11.07;66.97
56831;BME280;42713;42.676;23.352;2022-11-11T11:03:03;96055.31;;;11.05;67.21
56831;BME280;42713;42.676;23.352;2022-11-11T11:05:37;96055.06;;;11.13;66.57
56831;BME280;42713;42.676;23.352;2022-11-11T11:11:41;96044.47;;;11.01;66.65
56831;BME280;42713;42.676;23.352;2022-11-11T11:14:15;96038.59;;;11.06;66.80
56831;BME280;42713;42.676;23.352;2022-11-11T11:16:49;96041.13;;;11.19;66.63
56831;BME280;42713;42.676;23.352;2022-11-11T11:19:23;96047.88;;;11.34;65.89
56831;BME280;42713;42.676;23.352;2022-11-11T11:21:57;96047.16;;;11.45;65.42
56831;BME280;42713;42.676;23.352;2022-11-11T11:24:26;96036.75;;;11.57;65.18
56831;BME280;42713;42.676;23.352;2022-11-11T11:26:55;96036.28;;;11.67;63.94
56831;BME280;42713;42.676;23.352;2022-11-11T11:34:52;96027.91;;;11.77;62.96
56831;BME280;42713;42.676;23.352;2022-11-11T11:37:20;96022.16;;;11.87;63.25
56831;BME280;42713;42.676;23.352;2022-11-11T11:39:46;96020.25;;;12.01;61.03
56831;BME280;42713;42.676;23.352;2022-11-11T11:42:36;96021.84;;;12.02;60.28
56831;BME280;42713;42.676;23.352;2022-11-11T11:50:35;96021.63;;;12.03;59.87
56831;BME280;42713;42.676;23.352;2022-11-11T11:53:26;96020.69;;;11.91;60.07
56831;BME280;42713;42.676;23.352;2022-11-11T11:55:59;96016.00;;;11.99;60.07
56831;BME280;42713;42.676;23.352;2022-11-11T12:01:47;96025.59;;;11.87;59.98
56831;BME280;42713;42.676;23.352;2022-11-11T12:09:58;96016.91;;;11.87;60.00
56831;BME280;42713;42.676;23.352;2022-11-11T12:15:37;96015.69;;;11.89;59.42
56831;BME280;42713;42.676;23.352;2022-11-11T12:21:26;96000.34;;;11.86;59.71
56831;BME280;42713;42.676;23.352;2022-11-11T12:29:51;95992.59;;;11.98;58.70
56831;BME280;42713;42.676;23.352;2022-11-11T12:44:08;95995.50;;;12.08;58.18
56831;BME280;42713;42.676;23.352;2022-11-11T12:47:15;95988.06;;;12.05;58.47
56831;BME280;42713;42.676;23.352;2022-11-11T12:49:56;95977.53;;;11.87;59.10
56831;BME280;42713;42.676;23.352;2022-11-11T12:52:43;95986.09;;;12.01;58.42
56831;BME280;42713;42.676;23.352;2022-11-11T13:00:30;96005.03;;;11.84;59.71
56831;BME280;42713;42.676;23.352;2022-11-11T13:14:17;96005.81;;;11.66;60.53
56831;BME280;42713;42.676;23.352;2022-11-11T13:16:50;95987.13;;;11.56;60.45
56831;BME280;42713;42.676;23.352;2022-11-11T13:22:30;95997.66;;;11.74;60.57
56831;BME280;42713;42.676;23.352;2022-11-11T13:25:02;95997.00;;;11.79;60.02
56831;BME280;42713;42.676;23.352;2022-11-11T13:27:52;95995.63;;;11.76;59.56
56831;BME280;42713;42.676;23.352;2022-11-11T13:33:18;96004.81;;;11.67;60.15
56831;BME280;42713;42.676;23.352;2022-11-11T13:35:54;96008.00;;;11.69;60.03
56831;BME280;42713;42.676;23.352;2022-11-11T13:38:33;96007.66;;;11.65;59.77
56831;BME280;42713;42.676;23.352;2022-11-11T13:41:03;96004.50;;;11.57;60.15
56831;BME280;42713;42.676;23.352;2022-11-11T13:43:35;96010.97;;;11.54;60.73
56831;BME280;42713;42.676;23.352;2022-11-11T13:46:05;96013.25;;;11.50;60.36
56831;BME280;42713;42.676;23.352;2022-11-11T13:48:42;96015.00;;;11.57;60.42
56831;BME280;42713;42.676;23.352;2022-11-11T13:51:11;96009.69;;;11.63;60.41
56831;BME280;42713;42.676;23.352;2022-11-11T13:53:39;96005.22;;;11.64;60.63
56831;BME280;42713;42.676;23.352;2022-11-11T13:56:07;96010.19;;;11.72;60.58
56831;BME280;42713;42.676;23.352;2022-11-11T13:58:39;96013.56;;;11.79;59.48
56831;BME280;42713;42.676;23.352;2022-11-11T14:01:07;96012.75;;;11.79;60.17
56831;BME280;42713;42.676;23.352;2022-11-11T14:03:46;96016.91;;;11.87;59.57
56831;BME280;42713;42.676;23.352;2022-11-11T14:06:28;96016.56;;;11.83;60.18
56831;BME280;42713;42.676;23.352;2022-11-11T14:08:54;96017.56;;;11.82;60.01
56831;BME280;42713;42.676;23.352;2022-11-11T14:13:48;96007.88;;;11.82;60.75
56831;BME280;42713;42.676;23.352;2022-11-11T14:24:31;96022.28;;;11.98;60.50
56831;BME280;42713;42.676;23.352;2022-11-11T14:27:13;96023.09;;;11.99;60.55
56831;BME280;42713;42.676;23.352;2022-11-11T14:29:48;96016.41;;;11.96;60.49
56831;BME280;42713;42.676;23.352;2022-11-11T14:34:47;96029.72;;;12.02;61.57
56831;BME280;42713;42.676;23.352;2022-11-11T14:37:28;96029.81;;;11.88;62.07
56831;BME280;42713;42.676;23.352;2022-11-11T14:39:55;96024.72;;;11.93;62.17
56831;BME280;42713;42.676;23.352;2022-11-11T14:45:00;96025.91;;;11.97;62.56
56831;BME280;42713;42.676;23.352;2022-11-11T14:47:36;96028.47;;;12.04;62.68
56831;BME280;42713;42.676;23.352;2022-11-11T14:50:02;96034.69;;;12.10;62.71
56831;BME280;42713;42.676;23.352;2022-11-11T14:52:48;96034.91;;;12.08;62.75
56831;BME280;42713;42.676;23.352;2022-11-11T14:55:18;96029.44;;;12.10;62.42
56831;BME280;42713;42.676;23.352;2022-11-11T14:57:46;96034.03;;;12.14;62.52
56831;BME280;42713;42.676;23.352;2022-11-11T15:02:47;96027.53;;;12.17;62.68
56831;BME280;42713;42.676;23.352;2022-11-11T15:05:17;96040.59;;;12.24;63.36
56831;BME280;42713;42.676;23.352;2022-11-11T15:07:58;96040.00;;;12.22;62.13
56831;BME280;42713;42.676;23.352;2022-11-11T15:16:06;96043.22;;;12.24;62.46
56831;BME280;42713;42.676;23.352;2022-11-11T15:18:50;96054.91;;;12.28;62.41
56831;BME280;42713;42.676;23.352;2022-11-11T15:21:29;96051.69;;;12.26;61.94
56831;BME280;42713;42.676;23.352;2022-11-11T15:24:11;96046.44;;;12.26;61.90
56831;BME280;42713;42.676;23.352;2022-11-11T15:35:22;96045.34;;;12.34;61.75
56831;BME280;42713;42.676;23.352;2022-11-11T15:37:54;96046.72;;;12.36;61.28
56831;BME280;42713;42.676;23.352;2022-11-11T15:40:26;96044.09;;;12.36;61.87
56831;BME280;42713;42.676;23.352;2022-11-11T15:42:55;96041.00;;;12.39;61.98
56831;BME280;42713;42.676;23.352;2022-11-11T15:45:30;96039.19;;;12.40;61.71
56831;BME280;42713;42.676;23.352;2022-11-11T15:48:00;96040.78;;;12.41;61.91
56831;BME280;42713;42.676;23.352;2022-11-11T15:50:32;96056.91;;;12.44;61.28
56831;BME280;42713;42.676;23.352;2022-11-11T15:53:01;96046.41;;;12.44;61.32